Time;durP1;ratioP1;P1;durP2;ratioP2;P2;SDS_P1;SDS_P2;PMS_P1;PMS_P2;Temp;Humidity;BMP_temperature;BMP_pressure;BME280_temperature;BME280_humidity;BME280_pressure;Samples;Min_cycle;Max_cycle;Signal;HPM_P1;HPM_P2
2024/01/09 00:02:21;;;;;;;29.88;14.18;;;-7.80;99.90;;;;;;5024886;28;20561;-79
2024/01/09 00:04:47;;;;;;;31.33;13.98;;;-7.70;99.90;;;;;;5029690;28;20058;-78
2024/01/09 00:07:15;;;;;;;37.10;14.38;;;-7.80;99.90;;;;;;5025216;28;20028;-84
2024/01/09 00:09:41;;;;;;;23.00;11.90;;;-7.80;99.90;;;;;;5022799;28;20044;-83
2024/01/09 00:12:07;;;;;;;35.08;13.98;;;-7.90;99.90;;;;;;5021954;28;20025;-78
2024/01/09 00:14:33;;;;;;;38.97;15.70;;;-7.90;99.90;;;;;;5027305;28;20478;-78
2024/01/09 00:17:03;;;;;;;31.65;14.60;;;-7.90;99.90;;;;;;5030739;28;20026;-79
2024/01/09 00:19:28;;;;;;;29.88;14.82;;;-8.00;99.90;;;;;;5039128;28;20029;-78
2024/01/09 00:21:55;;;;;;;28.23;14.50;;;-8.00;99.90;;;;;;5028164;28;20022;-80
2024/01/09 00:24:21;;;;;;;29.05;13.95;;;-8.00;99.90;;;;;;5016930;28;20037;-78
2024/01/09 00:26:47;;;;;;;32.22;13.95;;;-8.00;99.90;;;;;;5024214;28;20600;-79
2024/01/09 00:29:15;;;;;;;32.10;13.70;;;-8.00;99.90;;;;;;5029152;28;20055;-85
2024/01/09 00:31:41;;;;;;;31.55;14.38;;;-8.00;99.90;;;;;;5020725;28;20390;-80
2024/01/09 00:34:07;;;;;;;33.35;14.48;;;-8.00;99.90;;;;;;5029404;28;20029;-79
2024/01/09 00:36:33;;;;;;;33.17;15.27;;;-8.00;99.90;;;;;;5026297;28;21598;-81
2024/01/09 00:38:59;;;;;;;31.50;15.32;;;-8.00;99.90;;;;;;5020170;28;20026;-81
2024/01/09 00:41:24;;;;;;;30.75;14.73;;;-8.00;99.90;;;;;;5014627;28;20550;-79
2024/01/09 00:43:50;;;;;;;31.20;15.27;;;-8.10;99.90;;;;;;5019263;28;20029;-78
2024/01/09 00:46:15;;;;;;;30.85;14.15;;;-8.10;99.90;;;;;;5025770;28;20034;-78
2024/01/09 00:48:41;;;;;;;30.30;14.73;;;-8.10;99.90;;;;;;5022648;28;20038;-78
2024/01/09 00:51:06;;;;;;;36.83;16.08;;;-8.10;99.90;;;;;;5023472;28;20033;-82
2024/01/09 00:53:32;;;;;;;29.70;13.55;;;-8.10;99.90;;;;;;5014464;28;20022;-79
2024/01/09 00:55:58;;;;;;;31.77;14.10;;;-8.20;99.90;;;;;;5019353;28;20281;-79
2024/01/09 00:58:23;;;;;;;31.30;14.10;;;-8.20;99.90;;;;;;5023451;28;20073;-79
2024/01/09 01:00:49;;;;;;;39.28;16.40;;;-8.10;99.90;;;;;;5022388;28;20026;-78
2024/01/09 01:03:14;;;;;;;32.88;15.63;;;-8.20;99.90;;;;;;5019797;28;20221;-80
2024/01/09 01:05:40;;;;;;;44.15;18.17;;;-8.20;99.90;;;;;;5021006;28;20095;-78
2024/01/09 01:08:06;;;;;;;32.50;15.57;;;-8.20;99.90;;;;;;5023631;28;20041;-79
2024/01/09 01:10:31;;;;;;;34.03;14.90;;;-8.30;99.90;;;;;;5029517;28;20370;-79
2024/01/09 01:12:57;;;;;;;32.40;15.90;;;-8.30;99.90;;;;;;5026165;28;20022;-79
2024/01/09 01:15:23;;;;;;;27.38;13.30;;;-8.30;99.90;;;;;;5015571;28;20170;-80
2024/01/09 01:17:48;;;;;;;32.25;15.02;;;-8.30;99.90;;;;;;5017753;28;20033;-79
2024/01/09 01:20:15;;;;;;;26.00;13.13;;;-8.30;99.90;;;;;;5022382;28;20037;-80
2024/01/09 01:22:41;;;;;;;29.98;13.90;;;-8.20;99.90;;;;;;5027835;28;20040;-79
2024/01/09 01:25:08;;;;;;;34.60;15.07;;;-8.20;99.90;;;;;;5021695;28;20041;-80
2024/01/09 01:27:33;;;;;;;31.40;15.05;;;-8.20;99.90;;;;;;5021757;28;20052;-79
2024/01/09 01:29:59;;;;;;;29.55;14.48;;;-8.20;99.90;;;;;;5019853;28;20053;-78
2024/01/09 01:32:27;;;;;;;34.58;15.20;;;-8.30;99.90;;;;;;5019159;28;20030;-85
2024/01/09 01:34:54;;;;;;;28.95;13.85;;;-8.30;99.90;;;;;;5028251;28;20037;-80
2024/01/09 01:37:20;;;;;;;27.33;12.73;;;-8.30;99.90;;;;;;5014621;28;20026;-80
2024/01/09 01:39:45;;;;;;;31.10;14.88;;;-8.30;99.90;;;;;;5019475;28;20452;-80
2024/01/09 01:42:11;;;;;;;30.63;14.40;;;-8.40;99.90;;;;;;5020649;28;20029;-80
2024/01/09 01:44:36;;;;;;;32.92;14.98;;;-8.30;99.90;;;;;;5025006;28;20112;-78
2024/01/09 01:47:03;;;;;;;26.10;14.30;;;-8.40;99.90;;;;;;5025718;28;20021;-78
2024/01/09 01:49:29;;;;;;;34.05;14.77;;;-8.40;99.90;;;;;;5025025;28;20096;-77
2024/01/09 01:51:55;;;;;;;41.22;15.50;;;-8.40;99.90;;;;;;5024322;28;20089;-80
2024/01/09 01:54:22;;;;;;;36.08;14.13;;;-8.40;99.90;;;;;;5020908;28;20448;-79
2024/01/09 01:56:50;;;;;;;31.52;14.60;;;-8.40;99.90;;;;;;5028960;28;20025;-78
2024/01/09 01:59:19;;;;;;;36.33;15.75;;;-8.30;99.90;;;;;;5021261;28;20025;-79
2024/01/09 02:01:46;;;;;;;28.23;13.65;;;-8.30;99.90;;;;;;5028970;28;20041;-78
2024/01/09 02:04:12;;;;;;;30.15;14.45;;;-8.40;99.90;;;;;;5027004;28;20025;-78
2024/01/09 02:06:38;;;;;;;28.85;13.65;;;-8.30;99.90;;;;;;5018757;28;20549;-81
2024/01/09 02:09:04;;;;;;;28.23;13.15;;;-8.40;99.90;;;;;;5029754;28;20128;-78
2024/01/09 02:11:31;;;;;;;35.80;15.52;;;-8.50;99.90;;;;;;5021447;28;20629;-80
2024/01/09 02:13:58;;;;;;;24.77;13.38;;;-8.50;99.90;;;;;;5018212;28;20026;-79
2024/01/09 02:16:23;;;;;;;31.17;15.30;;;-8.50;99.90;;;;;;5028157;28;20482;-78
2024/01/09 02:18:49;;;;;;;27.15;13.50;;;-8.40;99.90;;;;;;5024870;28;20026;-78
2024/01/09 02:21:14;;;;;;;28.65;14.30;;;-8.40;99.90;;;;;;5030026;28;20037;-79
2024/01/09 02:23:40;;;;;;;30.33;14.07;;;-8.50;99.90;;;;;;5027066;28;20544;-80
2024/01/09 02:26:09;;;;;;;28.63;14.40;;;-8.60;99.90;;;;;;5021495;28;20095;-78
2024/01/09 02:28:45;;;;;;;37.13;16.13;;;-8.60;99.90;;;;;;5034894;28;20103;-78
2024/01/09 02:31:11;;;;;;;28.55;13.13;;;-8.60;99.90;;;;;;5011657;28;20032;-79
2024/01/09 02:33:39;;;;;;;28.98;13.35;;;-8.60;99.90;;;;;;5027546;28;20325;-81
2024/01/09 02:36:04;;;;;;;33.50;15.60;;;-8.60;99.90;;;;;;5023573;28;20021;-80
2024/01/09 02:38:30;;;;;;;31.10;14.50;;;-8.60;99.90;;;;;;5025925;28;20028;-79
2024/01/09 02:40:56;;;;;;;31.05;14.82;;;-8.60;99.90;;;;;;5026137;28;20095;-82
2024/01/09 02:43:21;;;;;;;28.33;14.32;;;-8.50;99.90;;;;;;5025129;28;20060;-78
2024/01/09 02:45:47;;;;;;;29.00;13.20;;;-8.50;99.90;;;;;;5022922;28;20021;-78
2024/01/09 02:48:12;;;;;;;27.77;13.98;;;-8.50;99.90;;;;;;5029965;28;20051;-80
2024/01/09 02:50:38;;;;;;;32.58;14.75;;;-8.50;99.90;;;;;;5027371;28;20025;-80
2024/01/09 02:53:03;;;;;;;33.63;15.38;;;-8.50;99.90;;;;;;5031120;28;20025;-80
2024/01/09 02:55:32;;;;;;;25.98;13.73;;;-8.40;99.90;;;;;;5030970;28;20033;-87
2024/01/09 02:57:58;;;;;;;29.02;13.05;;;-8.50;99.90;;;;;;5021795;28;20398;-79
2024/01/09 03:00:24;;;;;;;27.30;14.40;;;-8.50;99.90;;;;;;5026626;28;20021;-80
2024/01/09 03:02:50;;;;;;;30.02;13.82;;;-8.50;99.90;;;;;;5028354;28;20032;-80
2024/01/09 03:05:16;;;;;;;32.00;14.27;;;-8.60;99.90;;;;;;5033623;28;20084;-86
2024/01/09 03:07:42;;;;;;;29.92;14.73;;;-8.60;99.90;;;;;;5023502;28;20033;-80
2024/01/09 03:10:08;;;;;;;27.27;14.10;;;-8.70;99.90;;;;;;5023937;28;20432;-82
2024/01/09 03:12:34;;;;;;;30.33;15.23;;;-8.70;99.90;;;;;;5031921;28;20121;-81
2024/01/09 03:15:00;;;;;;;39.90;17.20;;;-8.80;99.90;;;;;;5017465;28;20124;-79
2024/01/09 03:17:25;;;;;;;41.17;16.07;;;-8.80;99.90;;;;;;5019120;28;20352;-78
2024/01/09 03:19:51;;;;;;;35.00;16.30;;;-8.90;99.90;;;;;;5036014;28;20067;-79
2024/01/09 03:22:16;;;;;;;29.65;14.73;;;-8.90;99.90;;;;;;5033096;28;20025;-79
2024/01/09 03:24:42;;;;;;;29.92;14.85;;;-8.90;99.90;;;;;;5034182;28;20059;-78
2024/01/09 03:27:10;;;;;;;39.75;16.85;;;-8.90;99.90;;;;;;5036163;28;20034;-83
2024/01/09 03:29:36;;;;;;;36.92;15.77;;;-8.90;99.90;;;;;;5023890;28;20289;-80
2024/01/09 03:32:01;;;;;;;34.55;15.57;;;-8.90;99.90;;;;;;5021307;28;20390;-79
2024/01/09 03:34:27;;;;;;;38.95;16.17;;;-9.00;99.90;;;;;;5019464;28;20029;-79
2024/01/09 03:36:52;;;;;;;30.13;14.53;;;-9.00;99.90;;;;;;5016785;28;20049;-79
2024/01/09 03:39:18;;;;;;;35.30;15.52;;;-9.00;99.90;;;;;;5023612;28;20029;-78
2024/01/09 03:41:46;;;;;;;38.23;16.50;;;-9.00;99.90;;;;;;5026791;28;20025;-87
2024/01/09 03:44:12;;;;;;;36.95;15.93;;;-9.10;99.90;;;;;;5022842;28;20056;-80
2024/01/09 03:46:38;;;;;;;39.05;16.30;;;-9.10;99.90;;;;;;5020836;28;20486;-84
2024/01/09 03:49:03;;;;;;;39.70;16.20;;;-9.10;99.90;;;;;;5015789;28;20037;-79
2024/01/09 03:51:29;;;;;;;35.85;16.08;;;-9.10;99.90;;;;;;5022554;28;20120;-78
2024/01/09 03:53:55;;;;;;;36.03;16.08;;;-9.20;99.90;;;;;;5021649;28;20500;-79
2024/01/09 03:56:20;;;;;;;34.75;15.95;;;-9.20;99.90;;;;;;5027597;28;20090;-81
2024/01/09 03:58:47;;;;;;;32.80;16.77;;;-9.10;99.90;;;;;;5020965;28;20443;-86
2024/01/09 04:01:13;;;;;;;35.00;14.05;;;-9.10;99.90;;;;;;5025724;28;20056;-86
2024/01/09 04:03:41;;;;;;;31.75;15.55;;;-9.10;99.90;;;;;;5028350;28;20947;-87
2024/01/09 04:06:07;;;;;;;33.45;15.90;;;-9.00;99.90;;;;;;5029076;28;20441;-80
2024/01/09 04:08:32;;;;;;;35.85;15.00;;;-9.00;99.90;;;;;;5025896;28;20037;-79
2024/01/09 04:10:58;;;;;;;36.20;16.57;;;-9.10;99.90;;;;;;5023778;28;20383;-81
2024/01/09 04:13:24;;;;;;;42.50;16.85;;;-9.10;99.90;;;;;;5022329;28;20382;-83
2024/01/09 04:15:49;;;;;;;32.75;15.50;;;-9.10;99.90;;;;;;5036958;28;20116;-78
2024/01/09 04:18:15;;;;;;;33.78;15.68;;;-9.10;99.90;;;;;;5018747;28;20030;-79
2024/01/09 04:20:42;;;;;;;39.47;16.15;;;-9.20;99.90;;;;;;5029556;28;20176;-80
2024/01/09 04:23:07;;;;;;;41.23;16.70;;;-9.20;99.90;;;;;;5020450;28;20033;-79
2024/01/09 04:25:34;;;;;;;35.78;15.77;;;-9.20;99.90;;;;;;5023980;28;20098;-79
2024/01/09 04:28:02;;;;;;;32.05;14.50;;;-9.20;99.90;;;;;;5030320;28;20132;-86
2024/01/09 04:30:29;;;;;;;42.50;15.75;;;-9.20;99.90;;;;;;5020755;28;20124;-78
2024/01/09 04:32:54;;;;;;;38.50;16.90;;;-9.20;99.90;;;;;;5023091;28;20112;-80
2024/01/09 04:35:20;;;;;;;34.70;15.65;;;-9.20;99.90;;;;;;5017488;28;20101;-79
2024/01/09 04:37:46;;;;;;;35.75;16.42;;;-9.20;99.90;;;;;;5025798;28;20410;-78
2024/01/09 04:40:11;;;;;;;31.38;15.15;;;-9.10;99.90;;;;;;5021911;28;20128;-78
2024/01/09 04:42:37;;;;;;;26.95;14.20;;;-9.00;99.90;;;;;;5023153;28;20557;-83
2024/01/09 04:45:02;;;;;;;42.55;16.88;;;-9.00;99.90;;;;;;5026801;28;20059;-79
2024/01/09 04:47:28;;;;;;;33.75;14.50;;;-9.00;99.90;;;;;;5010531;28;20448;-78
2024/01/09 04:49:54;;;;;;;29.33;14.50;;;-9.00;99.90;;;;;;5024498;28;20030;-82
2024/01/09 04:52:19;;;;;;;37.20;15.77;;;-9.00;99.90;;;;;;5020025;28;20030;-87
2024/01/09 04:54:45;;;;;;;37.83;15.13;;;-9.00;99.90;;;;;;5019433;28;20513;-80
2024/01/09 04:57:11;;;;;;;29.38;14.30;;;-9.00;99.90;;;;;;5020954;28;20044;-79
2024/01/09 04:59:36;;;;;;;39.28;16.30;;;-9.10;99.90;;;;;;5016957;28;20045;-78
2024/01/09 05:02:02;;;;;;;35.45;14.95;;;-9.10;99.90;;;;;;5018310;28;20490;-81
2024/01/09 05:04:29;;;;;;;33.67;16.77;;;-9.10;99.90;;;;;;5021227;28;20045;-79
2024/01/09 05:06:56;;;;;;;33.08;16.05;;;-9.20;99.90;;;;;;5026275;28;20409;-80
2024/01/09 05:09:21;;;;;;;33.53;15.18;;;-9.20;99.90;;;;;;5029863;28;20061;-78
2024/01/09 05:11:47;;;;;;;33.75;15.15;;;-9.20;99.90;;;;;;5029986;28;20041;-78
2024/01/09 05:14:12;;;;;;;37.97;16.60;;;-9.20;99.90;;;;;;5029087;28;20029;-79
2024/01/09 05:16:38;;;;;;;38.60;15.20;;;-9.10;99.90;;;;;;5022689;28;20116;-79
2024/01/09 05:19:04;;;;;;;36.63;16.52;;;-9.10;99.90;;;;;;5015554;28;20038;-80
2024/01/09 05:21:30;;;;;;;36.88;15.43;;;-9.10;99.90;;;;;;5019321;28;20033;-78
2024/01/09 05:23:56;;;;;;;33.60;15.20;;;-9.20;99.90;;;;;;5014990;28;20029;-82
2024/01/09 05:26:22;;;;;;;23.92;13.25;;;-9.20;99.90;;;;;;5023229;28;20110;-83
2024/01/09 05:28:47;;;;;;;30.92;14.57;;;-9.20;99.90;;;;;;5024669;28;20040;-80
2024/01/09 05:31:13;;;;;;;36.25;16.58;;;-9.20;99.90;;;;;;5018613;28;20022;-80
2024/01/09 05:33:39;;;;;;;39.97;16.85;;;-9.30;99.90;;;;;;5022828;28;20033;-79
2024/01/09 05:36:07;;;;;;;39.90;17.98;;;-9.30;99.90;;;;;;5019727;28;20025;-86
2024/01/09 05:41:55;;;;;;;39.77;16.10;;;-9.40;99.90;;;;;;5009546;28;20056;-79
2024/01/09 05:44:22;;;;;;;42.93;17.47;;;-9.40;99.90;;;;;;5024338;28;20025;-80
2024/01/09 05:46:49;;;;;;;43.15;15.15;;;-9.40;99.90;;;;;;5013574;28;20025;-78
2024/01/09 05:49:15;;;;;;;42.22;17.23;;;-9.40;99.90;;;;;;5020821;28;20043;-78
2024/01/09 05:51:40;;;;;;;38.83;15.23;;;-9.40;99.90;;;;;;5029722;28;20029;-79
2024/01/09 05:54:06;;;;;;;40.30;18.15;;;-9.40;99.90;;;;;;5026448;28;20036;-78
2024/01/09 05:56:32;;;;;;;41.47;18.30;;;-9.30;99.90;;;;;;5016080;28;20121;-79
2024/01/09 05:58:57;;;;;;;34.45;16.98;;;-9.30;99.90;;;;;;5016083;28;20096;-78
2024/01/09 06:01:23;;;;;;;35.97;17.87;;;-9.30;99.90;;;;;;5023400;28;20032;-83
2024/01/09 06:03:48;;;;;;;38.35;18.20;;;-9.30;99.90;;;;;;5020310;28;20037;-78
2024/01/09 06:06:14;;;;;;;34.33;15.15;;;-9.30;99.90;;;;;;5020945;28;20502;-78
2024/01/09 06:08:40;;;;;;;32.73;16.67;;;-9.30;99.90;;;;;;5019189;28;20039;-78
2024/01/09 06:11:07;;;;;;;41.77;20.00;;;-9.40;99.90;;;;;;5022560;28;20481;-78
2024/01/09 06:13:32;;;;;;;40.20;17.52;;;-9.40;99.90;;;;;;5020291;28;20022;-78
2024/01/09 06:15:58;;;;;;;38.83;19.08;;;-9.40;99.90;;;;;;5023136;28;20040;-81
2024/01/09 06:18:35;;;;;;;40.63;18.57;;;-9.40;99.90;;;;;;5020287;28;20036;-79
2024/01/09 06:21:01;;;;;;;41.87;18.13;;;-9.40;99.90;;;;;;4996549;28;20041;-81
2024/01/09 06:23:26;;;;;;;45.00;21.63;;;-9.40;99.90;;;;;;5014800;28;20471;-80
2024/01/09 06:25:52;;;;;;;43.47;20.10;;;-9.30;99.90;;;;;;5019563;28;20033;-86
2024/01/09 06:28:18;;;;;;;42.83;20.50;;;-9.30;99.90;;;;;;5016018;28;20050;-79
2024/01/09 06:30:44;;;;;;;41.67;20.23;;;-9.30;99.90;;;;;;5017597;28;20022;-78
2024/01/09 06:33:09;;;;;;;43.05;20.33;;;-9.30;99.90;;;;;;5025941;28;20025;-78
2024/01/09 06:35:35;;;;;;;53.60;21.87;;;-9.30;99.90;;;;;;5015775;28;20026;-78
2024/01/09 06:38:00;;;;;;;45.70;20.25;;;-9.40;99.90;;;;;;5026963;28;20032;-78
2024/01/09 06:40:26;;;;;;;41.15;19.52;;;-9.40;99.90;;;;;;5019474;28;20026;-78
2024/01/09 06:42:52;;;;;;;48.40;21.20;;;-9.40;99.90;;;;;;5021602;28;20026;-81
2024/01/09 06:45:18;;;;;;;54.63;22.10;;;-9.40;99.90;;;;;;5015830;28;20025;-80
2024/01/09 06:47:45;;;;;;;47.25;21.30;;;-9.40;99.90;;;;;;5019282;28;20025;-85
2024/01/09 06:50:10;;;;;;;46.23;20.50;;;-9.40;99.90;;;;;;5019379;28;20033;-78
2024/01/09 06:52:36;;;;;;;54.10;21.45;;;-9.50;99.90;;;;;;5020504;28;20075;-78
2024/01/09 06:55:03;;;;;;;43.25;20.88;;;-9.50;99.90;;;;;;5016845;28;20036;-78
2024/01/09 06:57:29;;;;;;;41.80;20.00;;;-9.50;99.90;;;;;;5011387;28;20301;-84
2024/01/09 06:59:55;;;;;;;44.73;19.73;;;-9.50;99.90;;;;;;5017651;28;20381;-79
2024/01/09 07:02:21;;;;;;;45.50;19.10;;;-9.50;99.90;;;;;;5018224;28;20026;-78
2024/01/09 07:04:47;;;;;;;49.17;19.65;;;-9.50;99.90;;;;;;5012446;28;20041;-78
2024/01/09 07:07:13;;;;;;;45.20;20.90;;;-9.50;99.90;;;;;;5019441;28;20025;-78
2024/01/09 07:09:39;;;;;;;43.60;20.08;;;-9.50;99.90;;;;;;5016287;28;20068;-80
2024/01/09 07:12:06;;;;;;;48.90;22.20;;;-9.50;99.90;;;;;;5017228;28;20049;-78
2024/01/09 07:14:31;;;;;;;56.43;23.37;;;-9.60;99.90;;;;;;5015323;28;20048;-78
2024/01/09 07:16:57;;;;;;;69.78;26.85;;;-9.60;99.90;;;;;;5016361;28;20030;-78
2024/01/09 07:19:23;;;;;;;57.58;24.02;;;-9.50;99.90;;;;;;5018936;28;20113;-81
2024/01/09 07:21:49;;;;;;;48.42;22.00;;;-9.50;99.90;;;;;;5019574;28;20036;-78
2024/01/09 07:24:14;;;;;;;65.10;25.10;;;-9.60;99.90;;;;;;5016215;28;20022;-81
2024/01/09 07:26:41;;;;;;;52.95;23.42;;;-9.60;99.90;;;;;;5014308;28;20116;-80
2024/01/09 07:29:07;;;;;;;49.23;22.80;;;-9.60;99.90;;;;;;5020926;28;20132;-80
2024/01/09 07:31:32;;;;;;;50.00;21.37;;;-9.60;99.90;;;;;;5016721;28;20553;-78
2024/01/09 07:33:58;;;;;;;48.50;20.97;;;-9.60;99.90;;;;;;5019936;28;20360;-78
2024/01/09 07:36:24;;;;;;;58.03;23.00;;;-9.60;99.90;;;;;;5018274;28;20073;-81
2024/01/09 07:38:50;;;;;;;46.30;20.67;;;-9.70;99.90;;;;;;5021767;28;20021;-79
2024/01/09 07:41:17;;;;;;;43.50;21.02;;;-9.70;99.90;;;;;;5022321;28;20040;-84
2024/01/09 07:43:43;;;;;;;47.63;20.95;;;-9.70;99.90;;;;;;5020297;28;20037;-78
2024/01/09 07:46:10;;;;;;;49.22;21.58;;;-9.70;99.90;;;;;;5024175;28;20493;-79
2024/01/09 07:48:36;;;;;;;38.87;19.03;;;-9.70;99.90;;;;;;5024245;28;20048;-78
2024/01/09 07:51:02;;;;;;;45.13;20.20;;;-9.70;99.90;;;;;;5018333;28;20462;-78
2024/01/09 07:53:28;;;;;;;50.42;19.67;;;-9.70;99.90;;;;;;5020821;28;20043;-80
2024/01/09 07:55:55;;;;;;;53.67;25.33;;;-9.70;99.90;;;;;;5029219;28;20028;-81
2024/01/09 07:58:20;;;;;;;46.13;20.50;;;-9.60;99.90;;;;;;5021068;28;20505;-78
2024/01/09 08:00:46;;;;;;;52.77;22.17;;;-9.60;99.90;;;;;;5021061;28;20037;-78
2024/01/09 08:03:14;;;;;;;46.57;19.03;;;-9.60;99.90;;;;;;5021493;28;20091;-81
2024/01/09 08:05:41;;;;;;;42.50;18.70;;;-9.60;99.90;;;;;;5017004;28;20053;-79
2024/01/09 08:08:06;;;;;;;50.28;20.42;;;-9.60;99.90;;;;;;5026401;28;20091;-78
2024/01/09 08:10:32;;;;;;;46.15;17.50;;;-9.60;99.90;;;;;;5020343;28;20022;-78
2024/01/09 08:12:58;;;;;;;42.47;19.33;;;-9.60;99.90;;;;;;5022973;28;20075;-84
2024/01/09 08:15:24;;;;;;;49.27;19.80;;;-9.60;99.90;;;;;;5022647;28;20436;-79
2024/01/09 08:17:50;;;;;;;44.70;19.30;;;-9.50;99.90;;;;;;5020202;28;20029;-79
2024/01/09 08:20:16;;;;;;;45.30;20.65;;;-9.50;99.90;;;;;;5022682;28;20033;-78
2024/01/09 08:22:42;;;;;;;42.53;19.10;;;-9.50;99.90;;;;;;5021721;28;20452;-79
2024/01/09 08:25:08;;;;;;;44.88;18.90;;;-9.40;99.90;;;;;;5021981;28;20021;-81
2024/01/09 08:27:34;;;;;;;43.55;20.55;;;-9.40;99.90;;;;;;5022079;28;20096;-78
2024/01/09 08:29:59;;;;;;;43.95;19.15;;;-9.40;99.90;;;;;;5025597;28;20139;-79
2024/01/09 08:32:25;;;;;;;49.83;20.35;;;-9.30;99.90;;;;;;5020702;28;20053;-80
2024/01/09 08:34:51;;;;;;;41.70;18.52;;;-9.30;99.90;;;;;;5012728;28;20458;-78
2024/01/09 08:37:17;;;;;;;50.88;20.35;;;-9.20;99.90;;;;;;5021303;28;20036;-77
2024/01/09 08:39:42;;;;;;;44.92;18.17;;;-9.20;99.90;;;;;;5028806;28;20033;-78
2024/01/09 08:42:08;;;;;;;51.10;19.15;;;-9.20;99.90;;;;;;5021292;28;20506;-79
2024/01/09 08:44:34;;;;;;;48.67;21.00;;;-9.10;99.90;;;;;;5024646;28;20028;-79
2024/01/09 08:46:59;;;;;;;44.60;17.70;;;-9.10;99.90;;;;;;5024746;28;20034;-77
2024/01/09 08:49:25;;;;;;;37.83;18.15;;;-9.00;99.90;;;;;;5022102;28;20048;-83
2024/01/09 08:51:51;;;;;;;45.10;19.50;;;-9.00;99.90;;;;;;5019803;28;20120;-79
2024/01/09 08:54:17;;;;;;;47.67;20.48;;;-8.90;99.90;;;;;;5016994;28;20163;-80
2024/01/09 08:56:42;;;;;;;47.13;20.30;;;-8.90;99.90;;;;;;5017641;28;20032;-77
2024/01/09 08:59:09;;;;;;;48.20;20.15;;;-8.80;99.90;;;;;;5021712;28;20188;-79
2024/01/09 09:01:38;;;;;;;48.42;22.65;;;-8.70;99.90;;;;;;5022866;28;20052;-79
2024/01/09 09:04:04;;;;;;;51.00;22.15;;;-8.60;99.90;;;;;;5019708;28;20037;-77
2024/01/09 09:06:30;;;;;;;53.13;23.77;;;-8.60;99.90;;;;;;5023769;28;20403;-77
2024/01/09 09:08:55;;;;;;;59.20;23.27;;;-8.50;99.90;;;;;;5018981;28;20045;-78
2024/01/09 09:11:21;;;;;;;51.53;22.63;;;-8.40;99.90;;;;;;5029400;28;20029;-79
2024/01/09 09:13:47;;;;;;;60.45;22.23;;;-8.30;99.90;;;;;;5036049;28;20068;-79
2024/01/09 09:16:16;;;;;;;48.47;19.42;;;-8.20;99.90;;;;;;5027538;28;20568;-79
2024/01/09 09:18:42;;;;;;;49.70;19.92;;;-8.10;99.90;;;;;;5024189;28;20034;-80
2024/01/09 09:21:08;;;;;;;43.75;20.08;;;-8.10;99.90;;;;;;5022506;28;20036;-81
2024/01/09 09:23:33;;;;;;;44.35;19.30;;;-8.10;99.90;;;;;;5029364;28;20393;-77
2024/01/09 09:25:59;;;;;;;44.60;20.13;;;-8.00;99.90;;;;;;5026250;28;20030;-78
2024/01/09 09:28:25;;;;;;;55.33;23.85;;;-7.90;99.90;;;;;;5016552;28;20057;-78
2024/01/09 09:30:50;;;;;;;47.85;22.30;;;-7.80;99.90;;;;;;5026535;28;20030;-78
2024/01/09 09:33:16;;;;;;;51.60;20.73;;;-7.70;99.90;;;;;;5016214;28;20033;-78
2024/01/09 09:35:41;;;;;;;47.42;22.15;;;-7.70;99.90;;;;;;5026862;28;20028;-81
2024/01/09 09:38:07;;;;;;;59.58;27.40;;;-7.60;99.90;;;;;;5025587;28;20060;-78
2024/01/09 09:40:33;;;;;;;59.20;27.27;;;-7.60;99.90;;;;;;5022116;28;20060;-78
2024/01/09 09:43:02;;;;;;;71.95;32.35;;;-7.60;99.90;;;;;;5025549;28;20494;-78
2024/01/09 09:45:30;;;;;;;70.97;30.58;;;-7.60;99.90;;;;;;5024150;28;20025;-78
2024/01/09 09:47:56;;;;;;;78.32;31.85;;;-7.50;99.90;;;;;;5023828;28;20517;-78
2024/01/09 09:50:22;;;;;;;69.13;29.80;;;-7.40;99.90;;;;;;5030899;28;20470;-81
2024/01/09 09:52:50;;;;;;;71.15;28.73;;;-7.50;99.90;;;;;;5028661;28;20033;-78
2024/01/09 09:55:17;;;;;;;61.35;27.85;;;-7.40;99.90;;;;;;5020132;28;20034;-78
2024/01/09 09:57:46;;;;;;;57.05;26.90;;;-7.40;99.90;;;;;;5023577;28;20043;-86
2024/01/09 10:00:12;;;;;;;63.13;27.95;;;-7.40;99.90;;;;;;5016065;28;20025;-84
2024/01/09 10:02:48;;;;;;;54.50;23.45;;;-7.40;99.90;;;;;;5023953;28;20038;-81
2024/01/09 10:05:16;;;;;;;65.80;27.13;;;-7.40;99.90;;;;;;5020120;28;20494;-78
2024/01/09 10:07:47;;;;;;;70.95;27.85;;;-7.30;99.90;;;;;;5017672;28;20029;-78
2024/01/09 10:10:14;;;;;;;60.72;27.15;;;-7.20;99.90;;;;;;5024561;28;20026;-78
2024/01/09 10:12:41;;;;;;;67.82;28.00;;;-7.20;99.90;;;;;;5026616;28;20029;-86
2024/01/09 10:15:11;;;;;;;60.35;28.60;;;-7.10;99.90;;;;;;5026134;28;20140;-87
2024/01/09 10:17:38;;;;;;;60.90;28.77;;;-7.10;99.90;;;;;;5018370;28;20452;-80
2024/01/09 10:20:05;;;;;;;68.68;29.27;;;-7.10;99.90;;;;;;5019651;28;20025;-78
2024/01/09 10:22:35;;;;;;;67.90;30.00;;;-7.00;99.90;;;;;;5024916;28;20371;-77
2024/01/09 10:25:04;;;;;;;60.28;27.75;;;-7.00;99.90;;;;;;5027144;28;20033;-79
2024/01/09 10:27:30;;;;;;;54.03;26.33;;;-7.00;99.90;;;;;;5024469;28;20036;-77
2024/01/09 10:29:57;;;;;;;69.68;28.98;;;-7.00;99.90;;;;;;5025434;28;20136;-78
2024/01/09 10:32:23;;;;;;;67.18;27.77;;;-7.00;99.90;;;;;;5030551;28;20086;-82
2024/01/09 10:34:49;;;;;;;57.65;28.23;;;-7.00;99.90;;;;;;5033813;28;20029;-79
2024/01/09 10:37:15;;;;;;;57.13;26.48;;;-7.00;99.90;;;;;;5023863;28;20352;-80
2024/01/09 10:39:42;;;;;;;63.65;28.10;;;-6.90;99.90;;;;;;5017428;28;20037;-78
2024/01/09 10:42:09;;;;;;;58.80;25.75;;;-6.90;99.90;;;;;;5023662;28;20045;-78
2024/01/09 10:44:39;;;;;;;54.08;25.75;;;-6.90;99.90;;;;;;5022844;28;20080;-86
2024/01/09 10:47:09;;;;;;;59.22;27.83;;;-6.90;99.90;;;;;;5011922;28;20402;-81
2024/01/09 10:49:38;;;;;;;54.42;25.55;;;-6.90;99.90;;;;;;5012325;28;20498;-83
2024/01/09 10:52:16;;;;;;;58.28;25.33;;;-6.90;99.90;;;;;;5023208;28;20087;-86
2024/01/09 10:54:43;;;;;;;53.88;25.10;;;-6.90;99.90;;;;;;5031242;28;20140;-79
2024/01/09 10:57:13;;;;;;;60.33;25.20;;;-6.90;99.90;;;;;;5031492;28;20036;-78
2024/01/09 10:59:43;;;;;;;56.83;26.83;;;-6.90;99.90;;;;;;5024711;28;20359;-79
2024/01/09 11:02:16;;;;;;;62.67;26.77;;;-6.90;99.90;;;;;;5029001;28;20076;-81
2024/01/09 11:04:45;;;;;;;52.40;24.20;;;-6.90;99.90;;;;;;5017932;28;20058;-78
2024/01/09 11:07:16;;;;;;;67.30;28.83;;;-6.90;99.90;;;;;;5026017;28;20104;-78
2024/01/09 11:09:47;;;;;;;57.53;26.65;;;-6.80;99.90;;;;;;5019392;28;20042;-78
2024/01/09 11:12:32;;;;;;;59.05;28.27;;;-6.90;99.90;;;;;;5027729;28;20033;-78
2024/01/09 11:15:14;;;;;;;57.15;27.23;;;-6.80;99.90;;;;;;5028978;28;20037;-80
2024/01/09 11:17:41;;;;;;;52.50;25.80;;;-6.80;99.90;;;;;;5028687;28;20038;-79
2024/01/09 11:20:08;;;;;;;64.88;27.23;;;-6.80;99.90;;;;;;5037898;28;20021;-84
2024/01/09 11:22:37;;;;;;;63.00;25.80;;;-6.80;99.90;;;;;;5026886;28;20498;-78
2024/01/09 11:25:16;;;;;;;60.13;27.88;;;-6.90;99.90;;;;;;5030812;28;20390;-78
2024/01/09 11:27:46;;;;;;;57.03;27.33;;;-6.90;99.90;;;;;;5020946;28;20524;-78
2024/01/09 11:30:14;;;;;;;57.50;25.55;;;-6.80;99.90;;;;;;5028099;28;20254;-82
2024/01/09 11:32:41;;;;;;;57.47;25.23;;;-6.80;99.90;;;;;;5021349;28;20029;-78
2024/01/09 11:35:20;;;;;;;62.40;26.60;;;-6.70;99.90;;;;;;5026737;28;20466;-78
2024/01/09 11:37:48;;;;;;;52.95;24.25;;;-6.70;99.90;;;;;;5025135;28;20064;-78
2024/01/09 11:40:19;;;;;;;51.88;25.17;;;-6.70;99.90;;;;;;5025747;28;20041;-80
2024/01/09 11:42:52;;;;;;;69.88;28.92;;;-6.60;99.90;;;;;;5026480;28;20025;-84
2024/01/09 11:45:22;;;;;;;61.03;27.52;;;-6.60;99.90;;;;;;5017613;28;20021;-78
2024/01/09 11:47:50;;;;;;;58.42;27.30;;;-6.50;99.90;;;;;;5029064;28;20453;-78
2024/01/09 11:50:16;;;;;;;61.38;28.45;;;-6.60;99.90;;;;;;5023563;28;20032;-79
2024/01/09 11:52:42;;;;;;;65.53;27.10;;;-6.60;99.90;;;;;;5027726;28;20022;-79
2024/01/09 11:55:10;;;;;;;59.75;26.58;;;-6.60;99.90;;;;;;5026616;28;20033;-83
2024/01/09 11:57:38;;;;;;;62.55;27.30;;;-6.50;99.90;;;;;;5027108;28;20116;-79
2024/01/09 12:00:05;;;;;;;64.00;26.02;;;-6.50;99.90;;;;;;5027994;28;20029;-78
2024/01/09 12:02:37;;;;;;;54.10;25.33;;;-6.50;99.90;;;;;;5027098;28;20392;-78
2024/01/09 12:05:07;;;;;;;65.07;26.70;;;-6.40;99.90;;;;;;5027200;28;20087;-78
2024/01/09 12:07:37;;;;;;;56.03;24.38;;;-6.40;99.90;;;;;;5009901;28;20026;-78
2024/01/09 12:10:05;;;;;;;62.80;26.00;;;-6.40;99.90;;;;;;5017154;28;20045;-78
2024/01/09 12:12:30;;;;;;;56.15;25.10;;;-6.40;99.90;;;;;;5021799;28;20120;-78
2024/01/09 12:14:57;;;;;;;60.13;27.33;;;-6.30;99.90;;;;;;5016918;28;20072;-80
2024/01/09 12:17:33;;;;;;;65.20;26.38;;;-6.30;99.90;;;;;;5017994;28;20161;-79
2024/01/09 12:20:00;;;;;;;59.05;25.88;;;-6.30;99.90;;;;;;5018445;28;20445;-78
2024/01/09 12:22:26;;;;;;;58.83;25.75;;;-6.40;99.90;;;;;;5018901;28;20108;-79
2024/01/09 12:24:53;;;;;;;56.75;25.98;;;-6.30;99.90;;;;;;5020815;28;20433;-82
2024/01/09 12:27:21;;;;;;;68.00;26.75;;;-6.30;99.90;;;;;;5021460;28;20029;-78
2024/01/09 12:29:47;;;;;;;64.32;27.67;;;-6.30;99.90;;;;;;5025844;28;20072;-78